sensor_id;sensor_type;location;lat;lon;timestamp;temperature;humidity
66312;HTU21D;53114;51.138;6.008;2023-11-18T00:01:39;5.89;118.99
66312;HTU21D;53114;51.138;6.008;2023-11-18T00:04:13;5.89;118.99
66312;HTU21D;53114;51.138;6.008;2023-11-18T00:06:42;5.92;118.99
66312;HTU21D;53114;51.138;6.008;2023-11-18T00:09:12;5.92;118.99
66312;HTU21D;53114;51.138;6.008;2023-11-18T00:11:43;5.93;118.99
66312;HTU21D;53114;51.138;6.008;2023-11-18T00:14:09;5.95;118.99
66312;HTU21D;53114;51.138;6.008;2023-11-18T00:16:38;5.92;118.99
66312;HTU21D;53114;51.138;6.008;2023-11-18T00:19:05;5.92;118.99
66312;HTU21D;53114;51.138;6.008;2023-11-18T00:21:31;5.93;118.99
66312;HTU21D;53114;51.138;6.008;2023-11-18T00:23:57;5.92;118.99
66312;HTU21D;53114;51.138;6.008;2023-11-18T00:26:23;5.87;118.99
66312;HTU21D;53114;51.138;6.008;2023-11-18T00:28:56;5.84;118.99
66312;HTU21D;53114;51.138;6.008;2023-11-18T00:31:22;5.86;118.99
66312;HTU21D;53114;51.138;6.008;2023-11-18T00:33:50;5.91;118.99
66312;HTU21D;53114;51.138;6.008;2023-11-18T00:36:16;5.92;118.99
66312;HTU21D;53114;51.138;6.008;2023-11-18T00:38:42;5.90;118.99
66312;HTU21D;53114;51.138;6.008;2023-11-18T00:41:08;5.82;118.99
66312;HTU21D;53114;51.138;6.008;2023-11-18T00:43:34;5.75;118.99
66312;HTU21D;53114;51.138;6.008;2023-11-18T00:46:00;5.69;118.99
66312;HTU21D;53114;51.138;6.008;2023-11-18T00:48:27;5.66;118.99
66312;HTU21D;53114;51.138;6.008;2023-11-18T00:50:53;5.61;118.99
66312;HTU21D;53114;51.138;6.008;2023-11-18T00:53:20;5.54;118.99
66312;HTU21D;53114;51.138;6.008;2023-11-18T00:55:46;5.52;118.99
66312;HTU21D;53114;51.138;6.008;2023-11-18T00:58:13;5.50;118.99
66312;HTU21D;53114;51.138;6.008;2023-11-18T01:00:39;5.50;118.99
66312;HTU21D;53114;51.138;6.008;2023-11-18T01:03:05;5.46;118.99
66312;HTU21D;53114;51.138;6.008;2023-11-18T01:05:31;5.39;118.99
66312;HTU21D;53114;51.138;6.008;2023-11-18T01:07:57;5.36;118.99
66312;HTU21D;53114;51.138;6.008;2023-11-18T01:10:23;5.32;118.99
66312;HTU21D;53114;51.138;6.008;2023-11-18T01:12:50;5.28;118.99
66312;HTU21D;53114;51.138;6.008;2023-11-18T01:15:16;5.26;118.99
66312;HTU21D;53114;51.138;6.008;2023-11-18T01:17:45;5.22;118.99
66312;HTU21D;53114;51.138;6.008;2023-11-18T01:20:15;5.21;118.99
66312;HTU21D;53114;51.138;6.008;2023-11-18T01:22:49;5.20;118.99
66312;HTU21D;53114;51.138;6.008;2023-11-18T01:25:15;5.18;118.99
66312;HTU21D;53114;51.138;6.008;2023-11-18T01:27:52;5.18;118.99
66312;HTU21D;53114;51.138;6.008;2023-11-18T01:30:20;5.13;118.99
66312;HTU21D;53114;51.138;6.008;2023-11-18T01:32:46;5.12;118.99
66312;HTU21D;53114;51.138;6.008;2023-11-18T01:35:12;5.08;118.99
66312;HTU21D;53114;51.138;6.008;2023-11-18T01:37:41;5.05;118.99
66312;HTU21D;53114;51.138;6.008;2023-11-18T01:40:07;5.04;118.99
66312;HTU21D;53114;51.138;6.008;2023-11-18T01:42:35;5.07;118.99
66312;HTU21D;53114;51.138;6.008;2023-11-18T01:45:03;5.11;118.99
66312;HTU21D;53114;51.138;6.008;2023-11-18T01:47:32;5.20;118.99
66312;HTU21D;53114;51.138;6.008;2023-11-18T01:50:00;5.31;118.99
66312;HTU21D;53114;51.138;6.008;2023-11-18T01:52:29;5.38;118.99
66312;HTU21D;53114;51.138;6.008;2023-11-18T01:54:56;5.46;118.99
66312;HTU21D;53114;51.138;6.008;2023-11-18T01:57:22;5.50;118.99
66312;HTU21D;53114;51.138;6.008;2023-11-18T01:59:51;5.52;118.99
66312;HTU21D;53114;51.138;6.008;2023-11-18T02:02:17;5.55;118.99
66312;HTU21D;53114;51.138;6.008;2023-11-18T02:04:44;5.56;118.99
66312;HTU21D;53114;51.138;6.008;2023-11-18T02:07:10;5.52;118.99
66312;HTU21D;53114;51.138;6.008;2023-11-18T02:09:41;5.50;118.99
66312;HTU21D;53114;51.138;6.008;2023-11-18T02:12:23;5.50;118.99
66312;HTU21D;53114;51.138;6.008;2023-11-18T02:14:55;5.51;118.99
66312;HTU21D;53114;51.138;6.008;2023-11-18T02:17:25;5.54;118.99
66312;HTU21D;53114;51.138;6.008;2023-11-18T02:19:57;5.62;118.99
66312;HTU21D;53114;51.138;6.008;2023-11-18T02:22:25;5.65;118.99
66312;HTU21D;53114;51.138;6.008;2023-11-18T02:24:52;5.66;118.99
66312;HTU21D;53114;51.138;6.008;2023-11-18T02:27:18;5.67;118.99
66312;HTU21D;53114;51.138;6.008;2023-11-18T02:29:48;5.70;118.99
66312;HTU21D;53114;51.138;6.008;2023-11-18T02:32:31;5.72;118.99
66312;HTU21D;53114;51.138;6.008;2023-11-18T02:35:24;5.74;118.99
66312;HTU21D;53114;51.138;6.008;2023-11-18T02:37:55;5.72;118.99
66312;HTU21D;53114;51.138;6.008;2023-11-18T02:40:39;5.75;118.99
66312;HTU21D;53114;51.138;6.008;2023-11-18T02:43:08;5.76;118.99
66312;HTU21D;53114;51.138;6.008;2023-11-18T02:45:37;5.78;118.99
66312;HTU21D;53114;51.138;6.008;2023-11-18T02:48:04;5.82;118.99
66312;HTU21D;53114;51.138;6.008;2023-11-18T02:50:32;5.85;118.99
66312;HTU21D;53114;51.138;6.008;2023-11-18T02:52:58;5.90;118.99
66312;HTU21D;53114;51.138;6.008;2023-11-18T02:55:24;5.95;118.99
66312;HTU21D;53114;51.138;6.008;2023-11-18T02:57:50;6.00;118.99
66312;HTU21D;53114;51.138;6.008;2023-11-18T03:00:21;6.04;118.99
66312;HTU21D;53114;51.138;6.008;2023-11-18T03:02:51;6.04;118.99
66312;HTU21D;53114;51.138;6.008;2023-11-18T03:05:18;6.04;118.99
66312;HTU21D;53114;51.138;6.008;2023-11-18T03:07:45;6.04;118.99
66312;HTU21D;53114;51.138;6.008;2023-11-18T03:10:18;6.04;118.99
66312;HTU21D;53114;51.138;6.008;2023-11-18T03:12:48;6.04;118.99
66312;HTU21D;53114;51.138;6.008;2023-11-18T03:15:15;5.99;118.99
66312;HTU21D;53114;51.138;6.008;2023-11-18T03:17:45;5.95;118.99
66312;HTU21D;53114;51.138;6.008;2023-11-18T03:20:12;5.93;118.99
66312;HTU21D;53114;51.138;6.008;2023-11-18T03:22:40;5.87;118.99
66312;HTU21D;53114;51.138;6.008;2023-11-18T03:25:07;5.87;118.99
66312;HTU21D;53114;51.138;6.008;2023-11-18T03:27:33;5.86;118.99
66312;HTU21D;53114;51.138;6.008;2023-11-18T03:29:59;5.86;118.99
66312;HTU21D;53114;51.138;6.008;2023-11-18T03:32:25;5.92;118.99
66312;HTU21D;53114;51.138;6.008;2023-11-18T03:34:51;5.93;118.99
66312;HTU21D;53114;51.138;6.008;2023-11-18T03:37:21;5.90;118.99
66312;HTU21D;53114;51.138;6.008;2023-11-18T03:39:49;5.90;118.99
66312;HTU21D;53114;51.138;6.008;2023-11-18T03:42:14;5.91;118.99
66312;HTU21D;53114;51.138;6.008;2023-11-18T03:44:41;5.90;118.99
66312;HTU21D;53114;51.138;6.008;2023-11-18T03:47:07;5.89;118.99
66312;HTU21D;53114;51.138;6.008;2023-11-18T03:49:33;5.85;118.99
66312;HTU21D;53114;51.138;6.008;2023-11-18T03:52:00;5.84;118.99
66312;HTU21D;53114;51.138;6.008;2023-11-18T03:54:26;5.84;118.99
66312;HTU21D;53114;51.138;6.008;2023-11-18T03:56:52;5.81;118.99
66312;HTU21D;53114;51.138;6.008;2023-11-18T03:59:18;5.81;118.99
66312;HTU21D;53114;51.138;6.008;2023-11-18T04:01:44;5.79;118.99
66312;HTU21D;53114;51.138;6.008;2023-11-18T04:04:10;5.84;118.99
66312;HTU21D;53114;51.138;6.008;2023-11-18T04:06:36;5.87;118.99
66312;HTU21D;53114;51.138;6.008;2023-11-18T04:09:02;5.89;118.99
66312;HTU21D;53114;51.138;6.008;2023-11-18T04:11:28;5.94;118.99
66312;HTU21D;53114;51.138;6.008;2023-11-18T04:13:54;6.00;118.99
66312;HTU21D;53114;51.138;6.008;2023-11-18T04:16:20;6.05;118.99
66312;HTU21D;53114;51.138;6.008;2023-11-18T04:18:46;6.08;118.99
66312;HTU21D;53114;51.138;6.008;2023-11-18T04:21:13;6.10;118.99
66312;HTU21D;53114;51.138;6.008;2023-11-18T04:23:41;6.12;118.99
66312;HTU21D;53114;51.138;6.008;2023-11-18T04:26:08;6.11;118.99
66312;HTU21D;53114;51.138;6.008;2023-11-18T04:28:35;6.12;118.99
66312;HTU21D;53114;51.138;6.008;2023-11-18T04:31:02;6.14;118.99
66312;HTU21D;53114;51.138;6.008;2023-11-18T04:33:29;6.17;118.99
66312;HTU21D;53114;51.138;6.008;2023-11-18T04:35:58;6.21;118.99
66312;HTU21D;53114;51.138;6.008;2023-11-18T04:38:25;6.23;118.99
66312;HTU21D;53114;51.138;6.008;2023-11-18T04:40:54;6.23;118.99
66312;HTU21D;53114;51.138;6.008;2023-11-18T04:43:21;6.27;118.99
66312;HTU21D;53114;51.138;6.008;2023-11-18T04:45:48;6.33;118.99
66312;HTU21D;53114;51.138;6.008;2023-11-18T04:48:15;6.37;118.99
66312;HTU21D;53114;51.138;6.008;2023-11-18T04:50:44;6.42;118.99
66312;HTU21D;53114;51.138;6.008;2023-11-18T04:53:10;6.44;118.99
66312;HTU21D;53114;51.138;6.008;2023-11-18T04:55:39;6.45;118.99
66312;HTU21D;53114;51.138;6.008;2023-11-18T04:58:05;6.46;118.99
66312;HTU21D;53114;51.138;6.008;2023-11-18T05:00:35;6.51;118.99
66312;HTU21D;53114;51.138;6.008;2023-11-18T05:03:04;6.53;118.99
66312;HTU21D;53114;51.138;6.008;2023-11-18T05:05:31;6.55;118.99
66312;HTU21D;53114;51.138;6.008;2023-11-18T05:07:57;6.59;118.99
66312;HTU21D;53114;51.138;6.008;2023-11-18T05:10:23;6.59;118.99
66312;HTU21D;53114;51.138;6.008;2023-11-18T05:12:49;6.64;118.99
66312;HTU21D;53114;51.138;6.008;2023-11-18T05:15:22;6.65;118.99
66312;HTU21D;53114;51.138;6.008;2023-11-18T05:17:52;6.66;118.99
66312;HTU21D;53114;51.138;6.008;2023-11-18T05:20:18;6.65;118.99
66312;HTU21D;53114;51.138;6.008;2023-11-18T05:22:44;6.66;118.99
66312;HTU21D;53114;51.138;6.008;2023-11-18T05:25:10;6.70;118.99
66312;HTU21D;53114;51.138;6.008;2023-11-18T05:27:36;6.71;118.99
66312;HTU21D;53114;51.138;6.008;2023-11-18T05:30:02;6.74;118.99
66312;HTU21D;53114;51.138;6.008;2023-11-18T05:32:29;6.75;118.99
66312;HTU21D;53114;51.138;6.008;2023-11-18T05:34:59;6.76;118.99
66312;HTU21D;53114;51.138;6.008;2023-11-18T05:37:25;6.74;118.99
66312;HTU21D;53114;51.138;6.008;2023-11-18T05:39:51;6.72;118.99
66312;HTU21D;53114;51.138;6.008;2023-11-18T05:42:28;6.74;118.99
66312;HTU21D;53114;51.138;6.008;2023-11-18T05:44:53;6.78;118.99
66312;HTU21D;53114;51.138;6.008;2023-11-18T05:47:27;6.83;118.99
66312;HTU21D;53114;51.138;6.008;2023-11-18T05:49:54;6.87;118.99
66312;HTU21D;53114;51.138;6.008;2023-11-18T05:52:20;6.94;118.99
66312;HTU21D;53114;51.138;6.008;2023-11-18T05:54:48;6.98;118.99
66312;HTU21D;53114;51.138;6.008;2023-11-18T05:57:18;7.00;118.99
66312;HTU21D;53114;51.138;6.008;2023-11-18T05:59:45;7.02;118.99
66312;HTU21D;53114;51.138;6.008;2023-11-18T06:02:16;7.04;118.99
66312;HTU21D;53114;51.138;6.008;2023-11-18T06:04:47;7.08;118.99
66312;HTU21D;53114;51.138;6.008;2023-11-18T06:07:14;7.07;118.99
66312;HTU21D;53114;51.138;6.008;2023-11-18T06:09:41;7.09;118.99
66312;HTU21D;53114;51.138;6.008;2023-11-18T06:12:08;7.09;118.99
66312;HTU21D;53114;51.138;6.008;2023-11-18T06:14:39;7.12;118.99
66312;HTU21D;53114;51.138;6.008;2023-11-18T06:17:07;7.11;118.99
66312;HTU21D;53114;51.138;6.008;2023-11-18T06:19:34;7.12;118.99
66312;HTU21D;53114;51.138;6.008;2023-11-18T06:22:00;7.13;118.99
66312;HTU21D;53114;51.138;6.008;2023-11-18T06:24:26;7.13;118.99
66312;HTU21D;53114;51.138;6.008;2023-11-18T06:26:54;7.10;118.99
66312;HTU21D;53114;51.138;6.008;2023-11-18T06:29:22;7.08;118.99
66312;HTU21D;53114;51.138;6.008;2023-11-18T06:31:49;7.08;118.99
66312;HTU21D;53114;51.138;6.008;2023-11-18T06:34:15;7.11;118.99
66312;HTU21D;53114;51.138;6.008;2023-11-18T06:36:41;7.13;118.99
66312;HTU21D;53114;51.138;6.008;2023-11-18T06:39:06;7.16;118.99
66312;HTU21D;53114;51.138;6.008;2023-11-18T06:41:33;7.19;118.99
66312;HTU21D;53114;51.138;6.008;2023-11-18T06:44:01;7.20;118.99
66312;HTU21D;53114;51.138;6.008;2023-11-18T06:46:35;7.22;118.99
66312;HTU21D;53114;51.138;6.008;2023-11-18T06:49:03;7.27;118.99
66312;HTU21D;53114;51.138;6.008;2023-11-18T06:51:31;7.27;118.99
66312;HTU21D;53114;51.138;6.008;2023-11-18T06:54:07;7.24;118.99
66312;HTU21D;53114;51.138;6.008;2023-11-18T06:56:43;7.25;118.99
66312;HTU21D;53114;51.138;6.008;2023-11-18T06:59:10;7.28;118.99
66312;HTU21D;53114;51.138;6.008;2023-11-18T07:01:39;7.27;118.99
66312;HTU21D;53114;51.138;6.008;2023-11-18T07:04:12;7.27;118.99
66312;HTU21D;53114;51.138;6.008;2023-11-18T07:06:39;7.29;118.99
66312;HTU21D;53114;51.138;6.008;2023-11-18T07:09:08;7.30;118.99
66312;HTU21D;53114;51.138;6.008;2023-11-18T07:11:43;7.32;118.99
66312;HTU21D;53114;51.138;6.008;2023-11-18T07:14:11;7.34;118.99
66312;HTU21D;53114;51.138;6.008;2023-11-18T07:16:39;7.35;118.99
66312;HTU21D;53114;51.138;6.008;2023-11-18T07:19:08;7.39;118.99
66312;HTU21D;53114;51.138;6.008;2023-11-18T07:21:35;7.41;118.99
66312;HTU21D;53114;51.138;6.008;2023-11-18T07:24:01;7.42;118.99
66312;HTU21D;53114;51.138;6.008;2023-11-18T07:26:30;7.46;118.99
66312;HTU21D;53114;51.138;6.008;2023-11-18T07:28:56;7.49;118.99
66312;HTU21D;53114;51.138;6.008;2023-11-18T07:31:22;7.52;118.99
66312;HTU21D;53114;51.138;6.008;2023-11-18T07:33:53;7.54;118.99
66312;HTU21D;53114;51.138;6.008;2023-11-18T07:37:09;7.56;118.99
66312;HTU21D;53114;51.138;6.008;2023-11-18T07:40:19;7.61;118.99
66312;HTU21D;53114;51.138;6.008;2023-11-18T07:44:11;7.63;118.99
66312;HTU21D;53114;51.138;6.008;2023-11-18T07:47:54;7.70;118.99
66312;HTU21D;53114;51.138;6.008;2023-11-18T07:51:14;7.77;118.99
66312;HTU21D;53114;51.138;6.008;2023-11-18T07:54:01;7.82;118.99
66312;HTU21D;53114;51.138;6.008;2023-11-18T07:57:04;7.87;118.99
66312;HTU21D;53114;51.138;6.008;2023-11-18T08:00:20;7.94;118.99
66312;HTU21D;53114;51.138;6.008;2023-11-18T08:03:29;7.96;118.99
66312;HTU21D;53114;51.138;6.008;2023-11-18T08:06:31;8.00;118.99
66312;HTU21D;53114;51.138;6.008;2023-11-18T08:09:52;7.98;118.99
66312;HTU21D;53114;51.138;6.008;2023-11-18T08:13:08;8.00;118.99
66312;HTU21D;53114;51.138;6.008;2023-11-18T08:16:39;8.08;118.99
66312;HTU21D;53114;51.138;6.008;2023-11-18T08:24:29;8.15;118.99
66312;HTU21D;53114;51.138;6.008;2023-11-18T08:28:15;8.19;118.99
66312;HTU21D;53114;51.138;6.008;2023-11-18T08:31:35;8.22;118.99
66312;HTU21D;53114;51.138;6.008;2023-11-18T08:34:45;8.28;118.99
66312;HTU21D;53114;51.138;6.008;2023-11-18T08:38:16;8.30;118.99
66312;HTU21D;53114;51.138;6.008;2023-11-18T08:41:36;8.34;118.99
66312;HTU21D;53114;51.138;6.008;2023-11-18T08:44:35;8.41;118.99
66312;HTU21D;53114;51.138;6.008;2023-11-18T08:50:47;8.50;118.99
66312;HTU21D;53114;51.138;6.008;2023-11-18T08:53:56;8.57;118.99
66312;HTU21D;53114;51.138;6.008;2023-11-18T08:57:10;8.58;118.99
66312;HTU21D;53114;51.138;6.008;2023-11-18T09:00:32;8.57;118.99
66312;HTU21D;53114;51.138;6.008;2023-11-18T09:16:46;8.58;118.99
66312;HTU21D;53114;51.138;6.008;2023-11-18T09:19:37;8.65;118.99
66312;HTU21D;53114;51.138;6.008;2023-11-18T09:22:03;8.72;118.99
66312;HTU21D;53114;51.138;6.008;2023-11-18T09:24:30;8.76;118.99
66312;HTU21D;53114;51.138;6.008;2023-11-18T09:26:56;8.81;118.99
66312;HTU21D;53114;51.138;6.008;2023-11-18T09:29:22;8.82;118.99
66312;HTU21D;53114;51.138;6.008;2023-11-18T09:31:50;8.81;118.99
66312;HTU21D;53114;51.138;6.008;2023-11-18T09:34:18;8.80;118.99
66312;HTU21D;53114;51.138;6.008;2023-11-18T09:36:56;8.78;118.99
66312;HTU21D;53114;51.138;6.008;2023-11-18T09:39:22;8.75;118.99
66312;HTU21D;53114;51.138;6.008;2023-11-18T09:42:05;8.75;118.99
66312;HTU21D;53114;51.138;6.008;2023-11-18T09:44:36;8.74;118.99
66312;HTU21D;53114;51.138;6.008;2023-11-18T09:47:07;8.78;118.99
66312;HTU21D;53114;51.138;6.008;2023-11-18T09:49:44;8.80;118.99
66312;HTU21D;53114;51.138;6.008;2023-11-18T09:52:16;8.81;118.99
66312;HTU21D;53114;51.138;6.008;2023-11-18T09:57:49;8.87;118.99
66312;HTU21D;53114;51.138;6.008;2023-11-18T10:00:26;8.88;118.99
66312;HTU21D;53114;51.138;6.008;2023-11-18T10:02:58;8.86;118.99
66312;HTU21D;53114;51.138;6.008;2023-11-18T10:05:27;8.85;118.99
66312;HTU21D;53114;51.138;6.008;2023-11-18T10:07:57;8.80;118.99
66312;HTU21D;53114;51.138;6.008;2023-11-18T10:10:24;8.75;118.99
66312;HTU21D;53114;51.138;6.008;2023-11-18T10:13:07;8.70;118.99
66312;HTU21D;53114;51.138;6.008;2023-11-18T10:15:50;8.70;118.99
66312;HTU21D;53114;51.138;6.008;2023-11-18T10:18:21;8.67;118.99
66312;HTU21D;53114;51.138;6.008;2023-11-18T10:20:49;8.66;118.99
66312;HTU21D;53114;51.138;6.008;2023-11-18T10:23:22;8.66;118.99
66312;HTU21D;53114;51.138;6.008;2023-11-18T10:25:55;8.63;118.99
66312;HTU21D;53114;51.138;6.008;2023-11-18T10:28:34;8.64;118.99
66312;HTU21D;53114;51.138;6.008;2023-11-18T10:31:04;8.67;118.99
66312;HTU21D;53114;51.138;6.008;2023-11-18T10:33:31;8.70;118.99
66312;HTU21D;53114;51.138;6.008;2023-11-18T10:35:59;8.71;118.99
66312;HTU21D;53114;51.138;6.008;2023-11-18T10:38:30;8.75;118.99
66312;HTU21D;53114;51.138;6.008;2023-11-18T10:40:58;8.75;118.99
66312;HTU21D;53114;51.138;6.008;2023-11-18T10:43:28;8.76;118.99
66312;HTU21D;53114;51.138;6.008;2023-11-18T10:46:13;8.79;118.99
66312;HTU21D;53114;51.138;6.008;2023-11-18T10:48:41;8.79;118.99
66312;HTU21D;53114;51.138;6.008;2023-11-18T10:51:14;8.83;118.99
66312;HTU21D;53114;51.138;6.008;2023-11-18T10:53:42;8.89;118.99
66312;HTU21D;53114;51.138;6.008;2023-11-18T10:56:20;8.96;118.99
66312;HTU21D;53114;51.138;6.008;2023-11-18T10:58:53;9.03;118.99
66312;HTU21D;53114;51.138;6.008;2023-11-18T11:01:29;9.10;118.99
66312;HTU21D;53114;51.138;6.008;2023-11-18T11:03:57;9.14;118.99
66312;HTU21D;53114;51.138;6.008;2023-11-18T11:06:27;9.21;118.99
66312;HTU21D;53114;51.138;6.008;2023-11-18T11:08:57;9.22;118.99
66312;HTU21D;53114;51.138;6.008;2023-11-18T11:11:39;9.19;118.99
66312;HTU21D;53114;51.138;6.008;2023-11-18T11:14:06;9.20;118.99
66312;HTU21D;53114;51.138;6.008;2023-11-18T11:16:40;9.22;118.99
66312;HTU21D;53114;51.138;6.008;2023-11-18T11:19:29;9.22;118.99
66312;HTU21D;53114;51.138;6.008;2023-11-18T11:22:04;9.25;118.99
66312;HTU21D;53114;51.138;6.008;2023-11-18T11:27:25;9.29;118.99
66312;HTU21D;53114;51.138;6.008;2023-11-18T11:30:21;9.20;118.99
66312;HTU21D;53114;51.138;6.008;2023-11-18T11:32:56;9.25;118.99
66312;HTU21D;53114;51.138;6.008;2023-11-18T11:35:33;9.31;118.99
66312;HTU21D;53114;51.138;6.008;2023-11-18T11:38:00;9.34;118.99
66312;HTU21D;53114;51.138;6.008;2023-11-18T11:40:39;9.35;118.99
66312;HTU21D;53114;51.138;6.008;2023-11-18T11:43:09;9.36;118.99
66312;HTU21D;53114;51.138;6.008;2023-11-18T11:45:51;9.27;118.99
66312;HTU21D;53114;51.138;6.008;2023-11-18T11:48:19;9.29;118.99
66312;HTU21D;53114;51.138;6.008;2023-11-18T11:51:09;9.37;118.99
66312;HTU21D;53114;51.138;6.008;2023-11-18T11:54:12;9.44;118.99
66312;HTU21D;53114;51.138;6.008;2023-11-18T11:56:45;9.41;118.99
66312;HTU21D;53114;51.138;6.008;2023-11-18T12:02:17;9.44;118.99
66312;HTU21D;53114;51.138;6.008;2023-11-18T12:04:44;9.48;118.99
66312;HTU21D;53114;51.138;6.008;2023-11-18T12:07:11;9.51;118.99
66312;HTU21D;53114;51.138;6.008;2023-11-18T12:09:41;9.52;118.99
66312;HTU21D;53114;51.138;6.008;2023-11-18T12:12:22;9.53;118.99
66312;HTU21D;53114;51.138;6.008;2023-11-18T12:14:59;9.52;118.99
66312;HTU21D;53114;51.138;6.008;2023-11-18T12:23:14;9.39;118.99
66312;HTU21D;53114;51.138;6.008;2023-11-18T12:25:44;9.38;118.99
66312;HTU21D;53114;51.138;6.008;2023-11-18T12:28:15;9.36;118.99
66312;HTU21D;53114;51.138;6.008;2023-11-18T12:30:43;9.38;118.99
66312;HTU21D;53114;51.138;6.008;2023-11-18T12:33:19;9.37;118.99
66312;HTU21D;53114;51.138;6.008;2023-11-18T12:41:04;9.33;118.99
66312;HTU21D;53114;51.138;6.008;2023-11-18T12:43:48;9.26;118.99
66312;HTU21D;53114;51.138;6.008;2023-11-18T12:46:54;9.24;118.99
66312;HTU21D;53114;51.138;6.008;2023-11-18T12:49:24;9.25;118.99
66312;HTU21D;53114;51.138;6.008;2023-11-18T12:51:55;9.24;118.99
66312;HTU21D;53114;51.138;6.008;2023-11-18T12:54:25;9.24;118.99
66312;HTU21D;53114;51.138;6.008;2023-11-18T12:56:55;9.30;118.99
66312;HTU21D;53114;51.138;6.008;2023-11-18T12:59:21;9.33;118.99
66312;HTU21D;53114;51.138;6.008;2023-11-18T13:01:49;9.33;118.99
66312;HTU21D;53114;51.138;6.008;2023-11-18T13:04:32;9.32;118.99
66312;HTU21D;53114;51.138;6.008;2023-11-18T13:07:01;9.33;118.99
66312;HTU21D;53114;51.138;6.008;2023-11-18T13:09:29;9.32;118.99
66312;HTU21D;53114;51.138;6.008;2023-11-18T13:12:01;9.36;118.99
66312;HTU21D;53114;51.138;6.008;2023-11-18T13:14:36;9.35;118.99
66312;HTU21D;53114;51.138;6.008;2023-11-18T13:17:11;9.36;118.99
66312;HTU21D;53114;51.138;6.008;2023-11-18T13:19:40;9.32;118.99
66312;HTU21D;53114;51.138;6.008;2023-11-18T13:22:08;9.30;118.99
66312;HTU21D;53114;51.138;6.008;2023-11-18T13:24:41;9.32;118.99
66312;HTU21D;53114;51.138;6.008;2023-11-18T13:27:12;9.34;118.99
66312;HTU21D;53114;51.138;6.008;2023-11-18T13:29:44;9.38;118.99
66312;HTU21D;53114;51.138;6.008;2023-11-18T13:32:11;9.36;118.99
66312;HTU21D;53114;51.138;6.008;2023-11-18T13:34:39;9.36;118.99
66312;HTU21D;53114;51.138;6.008;2023-11-18T13:37:11;9.38;118.99
66312;HTU21D;53114;51.138;6.008;2023-11-18T13:39:53;9.40;118.99
66312;HTU21D;53114;51.138;6.008;2023-11-18T13:42:28;9.39;118.99
66312;HTU21D;53114;51.138;6.008;2023-11-18T13:45:04;9.40;118.99
66312;HTU21D;53114;51.138;6.008;2023-11-18T13:48:05;9.36;118.99
66312;HTU21D;53114;51.138;6.008;2023-11-18T13:50:36;9.33;118.99
66312;HTU21D;53114;51.138;6.008;2023-11-18T13:53:06;9.27;118.99
66312;HTU21D;53114;51.138;6.008;2023-11-18T13:55:34;9.26;118.99
66312;HTU21D;53114;51.138;6.008;2023-11-18T13:58:05;9.29;118.99
66312;HTU21D;53114;51.138;6.008;2023-11-18T14:00:31;9.30;118.99
66312;HTU21D;53114;51.138;6.008;2023-11-18T14:02:58;9.30;118.99
66312;HTU21D;53114;51.138;6.008;2023-11-18T14:05:25;9.26;118.99
66312;HTU21D;53114;51.138;6.008;2023-11-18T14:07:57;9.23;118.99
66312;HTU21D;53114;51.138;6.008;2023-11-18T14:10:31;9.19;118.99
66312;HTU21D;53114;51.138;6.008;2023-11-18T14:13:04;9.17;118.99
66312;HTU21D;53114;51.138;6.008;2023-11-18T14:15:38;9.17;118.99
66312;HTU21D;53114;51.138;6.008;2023-11-18T14:18:04;9.19;118.99
66312;HTU21D;53114;51.138;6.008;2023-11-18T14:20:33;9.11;118.99
66312;HTU21D;53114;51.138;6.008;2023-11-18T14:23:04;9.08;118.99
66312;HTU21D;53114;51.138;6.008;2023-11-18T14:25:33;9.05;118.99
66312;HTU21D;53114;51.138;6.008;2023-11-18T14:28:00;9.01;118.99
66312;HTU21D;53114;51.138;6.008;2023-11-18T14:30:26;8.98;118.99
66312;HTU21D;53114;51.138;6.008;2023-11-18T14:32:55;8.96;118.99
66312;HTU21D;53114;51.138;6.008;2023-11-18T14:35:21;8.95;118.99
66312;HTU21D;53114;51.138;6.008;2023-11-18T14:37:48;8.90;118.99
66312;HTU21D;53114;51.138;6.008;2023-11-18T14:40:15;8.90;118.99
66312;HTU21D;53114;51.138;6.008;2023-11-18T14:42:47;8.93;118.99
66312;HTU21D;53114;51.138;6.008;2023-11-18T14:45:14;8.96;118.99
66312;HTU21D;53114;51.138;6.008;2023-11-18T14:47:41;8.96;118.99
66312;HTU21D;53114;51.138;6.008;2023-11-18T14:50:07;8.96;118.99
66312;HTU21D;53114;51.138;6.008;2023-11-18T14:52:44;9.01;118.99
66312;HTU21D;53114;51.138;6.008;2023-11-18T14:55:11;9.03;118.99
66312;HTU21D;53114;51.138;6.008;2023-11-18T14:57:44;9.02;118.99
66312;HTU21D;53114;51.138;6.008;2023-11-18T15:00:13;9.02;118.99
66312;HTU21D;53114;51.138;6.008;2023-11-18T15:02:46;9.05;118.99
66312;HTU21D;53114;51.138;6.008;2023-11-18T15:05:14;9.04;118.99
66312;HTU21D;53114;51.138;6.008;2023-11-18T15:07:48;9.04;118.99
66312;HTU21D;53114;51.138;6.008;2023-11-18T15:10:22;9.04;118.99
66312;HTU21D;53114;51.138;6.008;2023-11-18T15:13:06;9.03;118.99
66312;HTU21D;53114;51.138;6.008;2023-11-18T15:15:32;9.05;118.99
66312;HTU21D;53114;51.138;6.008;2023-11-18T15:18:06;9.06;118.99
66312;HTU21D;53114;51.138;6.008;2023-11-18T15:20:40;9.11;118.99
66312;HTU21D;53114;51.138;6.008;2023-11-18T15:23:10;9.11;118.99
66312;HTU21D;53114;51.138;6.008;2023-11-18T15:25:41;9.15;118.99
66312;HTU21D;53114;51.138;6.008;2023-11-18T15:28:10;9.17;118.99
66312;HTU21D;53114;51.138;6.008;2023-11-18T15:30:41;9.19;118.99
66312;HTU21D;53114;51.138;6.008;2023-11-18T15:33:07;9.22;118.99
66312;HTU21D;53114;51.138;6.008;2023-11-18T15:35:39;9.21;118.99
66312;HTU21D;53114;51.138;6.008;2023-11-18T15:38:09;9.22;118.99
66312;HTU21D;53114;51.138;6.008;2023-11-18T15:40:36;9.23;118.99
66312;HTU21D;53114;51.138;6.008;2023-11-18T15:43:05;9.24;118.99
66312;HTU21D;53114;51.138;6.008;2023-11-18T15:45:38;9.25;118.99
66312;HTU21D;53114;51.138;6.008;2023-11-18T15:48:04;9.26;118.99
66312;HTU21D;53114;51.138;6.008;2023-11-18T15:50:31;9.31;118.99
66312;HTU21D;53114;51.138;6.008;2023-11-18T15:53:03;9.33;118.99
66312;HTU21D;53114;51.138;6.008;2023-11-18T15:55:33;9.33;118.99
66312;HTU21D;53114;51.138;6.008;2023-11-18T15:58:04;9.38;118.99
66312;HTU21D;53114;51.138;6.008;2023-11-18T16:00:54;9.45;118.99
66312;HTU21D;53114;51.138;6.008;2023-11-18T16:03:23;9.42;118.99
66312;HTU21D;53114;51.138;6.008;2023-11-18T16:06:05;9.38;118.99
66312;HTU21D;53114;51.138;6.008;2023-11-18T16:08:46;9.38;118.99
66312;HTU21D;53114;51.138;6.008;2023-11-18T16:11:17;9.40;118.99
66312;HTU21D;53114;51.138;6.008;2023-11-18T16:13:43;9.44;118.99
66312;HTU21D;53114;51.138;6.008;2023-11-18T16:16:09;9.42;118.99
66312;HTU21D;53114;51.138;6.008;2023-11-18T16:18:35;9.44;118.99
66312;HTU21D;53114;51.138;6.008;2023-11-18T16:21:04;9.47;118.99
66312;HTU21D;53114;51.138;6.008;2023-11-18T16:23:30;9.44;118.99
66312;HTU21D;53114;51.138;6.008;2023-11-18T16:26:04;9.41;118.99
66312;HTU21D;53114;51.138;6.008;2023-11-18T16:28:32;9.41;118.99
66312;HTU21D;53114;51.138;6.008;2023-11-18T16:30:58;9.39;118.99
66312;HTU21D;53114;51.138;6.008;2023-11-18T16:33:29;9.31;118.99